Terminal Aerodrome Forecast
Issued by NWS

Home | Current Version | Previous Version | Text Only | Print | Product List | Glossary On
Versions: 1 2 3 4 5 6 7 8 9 10 11 12 13 14 15 16 17 18 19 20 21 22 23 24 25 26
000
FTUS46 KMFR 042341
TAFOTH
TAF
KOTH 042341Z 0500/0524 32012G20KT P6SM FEW025 SCT050
     FM050300 34005KT P6SM SCT025
     FM050800 16003KT P6SM SCT015
     FM052000 32012G18KT P6SM SKC=

USA.gov is the U.S. government's official web portal to all federal, state and local government web resources and services.